Time;durP1;ratioP1;P1;durP2;ratioP2;P2;SDS_P1;SDS_P2;PMS_P1;PMS_P2;Temp;Humidity;BMP_temperature;BMP_pressure;BME280_temperature;BME280_humidity;BME280_pressure;Samples;Min_cycle;Max_cycle;Signal;HPM_P1;HPM_P2
2022/09/06 00:01:42;;;;;;;11.52;4.47;;;;;;;;;;5033866;28;20045;-76
2022/09/06 00:04:08;;;;;;;9.52;4.32;;;;;;;;;;5035228;28;20052;-75
2022/09/06 00:06:34;;;;;;;9.15;3.88;;;;;;;;;;5037624;28;20509;-75
2022/09/06 00:09:01;;;;;;;6.60;4.10;;;;;;;;;;5035739;28;20132;-75
2022/09/06 00:11:27;;;;;;;7.45;4.40;;;;;;;;;;5045373;28;20045;-75
2022/09/06 00:13:53;;;;;;;9.18;3.80;;;;;;;;;;5039546;28;20149;-75
2022/09/06 00:16:22;;;;;;;8.05;4.28;;;;;;;;;;5041585;28;20045;-75
2022/09/06 00:18:48;;;;;;;6.47;4.07;;;;;;;;;;5041482;28;20042;-76
2022/09/06 00:21:16;;;;;;;8.90;5.03;;;;;;;;;;5031290;28;20060;-76
2022/09/06 00:23:42;;;;;;;10.43;4.72;;;;;;;;;;5038538;28;20044;-76
2022/09/06 00:26:09;;;;;;;7.80;4.90;;;;;;;;;;5037871;28;20056;-75
2022/09/06 00:28:35;;;;;;;9.55;4.13;;;;;;;;;;5037789;28;20174;-75
2022/09/06 00:31:08;;;;;;;7.63;4.45;;;;;;;;;;5040204;28;20087;-76
2022/09/06 00:33:34;;;;;;;;;;;;;;;;;;5040192;28;20060;-75
2022/09/06 00:36:00;;;;;;;6.82;4.45;;;;;;;;;;5038613;28;19920;-75
2022/09/06 00:38:26;;;;;;;6.93;4.38;;;;;;;;;;5037690;28;20470;-75
2022/09/06 00:40:52;;;;;;;11.38;4.80;;;;;;;;;;5034216;28;20193;-75
2022/09/06 00:43:18;;;;;;;8.68;4.63;;;;;;;;;;5032302;28;20947;-75
2022/09/06 00:45:45;;;;;;;10.48;4.88;;;;;;;;;;5036948;28;20090;-76
2022/09/06 00:48:11;;;;;;;9.85;4.30;;;;;;;;;;5043061;28;20072;-76
2022/09/06 00:50:37;;;;;;;6.13;4.40;;;;;;;;;;5043727;28;20554;-75
2022/09/06 00:53:04;;;;;;;6.15;4.20;;;;;;;;;;5039260;28;20048;-76
2022/09/06 00:55:30;;;;;;;7.43;4.40;;;;;;;;;;5034481;28;20087;-75
2022/09/06 00:57:56;;;;;;;6.80;4.40;;;;;;;;;;5040096;28;20053;-75
2022/09/06 01:00:22;;;;;;;11.85;4.88;;;;;;;;;;5040964;28;20109;-75
2022/09/06 01:02:49;;;;;;;10.23;4.90;;;;;;;;;;5045351;28;20033;-75
2022/09/06 01:05:15;;;;;;;10.90;4.97;;;;;;;;;;5041175;28;20100;-76
2022/09/06 01:07:47;;;;;;;14.82;4.55;;;;;;;;;;5039996;28;20094;-75
2022/09/06 01:10:22;;;;;;;7.82;4.55;;;;;;;;;;5025380;28;20543;-75
2022/09/06 01:13:07;;;;;;;7.82;4.13;;;;;;;;;;5043288;28;20041;-75
2022/09/06 01:15:39;;;;;;;10.52;4.80;;;;;;;;;;5042854;28;20057;-75
2022/09/06 01:18:09;;;;;;;16.45;5.38;;;;;;;;;;5041550;28;20033;-75
2022/09/06 01:20:35;;;;;;;9.35;4.80;;;;;;;;;;5039340;28;20145;-75
2022/09/06 01:23:22;;;;;;;11.50;4.57;;;;;;;;;;5031385;28;20183;-75
2022/09/06 01:25:52;;;;;;;12.20;4.40;;;;;;;;;;5039125;28;20041;-75
2022/09/06 01:28:27;;;;;;;7.93;4.07;;;;;;;;;;5034506;28;20139;-76
2022/09/06 01:30:59;;;;;;;7.03;3.97;;;;;;;;;;5041511;28;20868;-74
2022/09/06 01:33:36;;;;;;;7.37;3.97;;;;;;;;;;5047877;28;20107;-75
2022/09/06 01:36:05;;;;;;;11.02;4.57;;;;;;;;;;5042173;28;20049;-75
2022/09/06 01:38:31;;;;;;;6.13;3.60;;;;;;;;;;5040531;28;20484;-75
2022/09/06 01:40:57;;;;;;;10.98;4.28;;;;;;;;;;5040664;28;20064;-76
2022/09/06 01:43:25;;;;;;;8.82;3.88;;;;;;;;;;5042992;28;20041;-75
2022/09/06 01:46:03;;;;;;;8.55;3.90;;;;;;;;;;5041264;28;20143;-76
2022/09/06 01:48:30;;;;;;;7.70;4.15;;;;;;;;;;5043177;28;20091;-75
2022/09/06 01:51:09;;;;;;;8.55;4.30;;;;;;;;;;5041451;28;20056;-75
2022/09/06 01:53:44;;;;;;;9.02;4.45;;;;;;;;;;5045664;28;20622;-76
2022/09/06 01:56:21;;;;;;;9.50;4.25;;;;;;;;;;5039882;28;20052;-75
2022/09/06 01:58:49;;;;;;;8.75;4.63;;;;;;;;;;5042439;28;20049;-76
2022/09/06 02:01:22;;;;;;;8.30;3.55;;;;;;;;;;5042426;28;20044;-76
2022/09/06 02:03:54;;;;;;;7.18;4.55;;;;;;;;;;5041332;28;20140;-75
2022/09/06 02:06:23;;;;;;;9.40;4.25;;;;;;;;;;5042490;28;20045;-76
2022/09/06 02:08:53;;;;;;;7.43;4.50;;;;;;;;;;5035599;28;20043;-75
2022/09/06 02:11:19;;;;;;;7.07;4.45;;;;;;;;;;5038578;28;20049;-75
2022/09/06 02:13:51;;;;;;;6.40;4.07;;;;;;;;;;5040370;28;20041;-75
2022/09/06 02:16:20;;;;;;;8.75;4.38;;;;;;;;;;5041358;28;20452;-76
2022/09/06 02:18:49;;;;;;;7.10;4.40;;;;;;;;;;5042193;28;20044;-75
2022/09/06 02:21:17;;;;;;;9.40;4.15;;;;;;;;;;5045331;28;20044;-75
2022/09/06 02:23:45;;;;;;;10.80;4.50;;;;;;;;;;5045914;28;20065;-75
2022/09/06 02:26:15;;;;;;;8.90;4.43;;;;;;;;;;5038884;28;20139;-75
2022/09/06 02:28:41;;;;;;;7.20;4.40;;;;;;;;;;5042531;28;20068;-75
2022/09/06 02:31:16;;;;;;;9.90;4.03;;;;;;;;;;5042669;28;20361;-76
2022/09/06 02:33:44;;;;;;;7.95;4.47;;;;;;;;;;5037348;28;20116;-75
2022/09/06 02:36:10;;;;;;;6.70;4.18;;;;;;;;;;5036282;28;20389;-75
2022/09/06 02:38:37;;;;;;;10.38;4.35;;;;;;;;;;5038071;28;20036;-75
2022/09/06 02:41:04;;;;;;;7.50;3.92;;;;;;;;;;5042213;28;20056;-75
2022/09/06 02:43:30;;;;;;;8.55;4.20;;;;;;;;;;5038802;28;20069;-75
2022/09/06 02:45:56;;;;;;;7.60;4.22;;;;;;;;;;5040085;28;20048;-75
2022/09/06 02:48:22;;;;;;;15.27;4.65;;;;;;;;;;5037902;28;20037;-75
2022/09/06 02:50:48;;;;;;;8.68;4.20;;;;;;;;;;5037725;28;20045;-75
2022/09/06 02:53:15;;;;;;;7.78;4.30;;;;;;;;;;5033134;28;20202;-75
2022/09/06 02:55:41;;;;;;;8.20;4.60;;;;;;;;;;5033696;28;20044;-75
2022/09/06 02:58:09;;;;;;;6.18;4.30;;;;;;;;;;5033128;28;20048;-75
2022/09/06 03:00:36;;;;;;;5.88;4.70;;;;;;;;;;5035492;28;20041;-75
2022/09/06 03:03:02;;;;;;;14.65;5.05;;;;;;;;;;5033885;28;20055;-75
2022/09/06 03:05:29;;;;;;;8.60;4.68;;;;;;;;;;5036207;28;20072;-75
2022/09/06 03:07:55;;;;;;;9.68;4.22;;;;;;;;;;5031632;28;20061;-75
2022/09/06 03:10:22;;;;;;;6.05;4.57;;;;;;;;;;5039475;28;20045;-75
2022/09/06 03:12:48;;;;;;;12.90;4.57;;;;;;;;;;5042061;28;20392;-75
2022/09/06 03:15:15;;;;;;;9.80;4.95;;;;;;;;;;5041251;28;20515;-75
2022/09/06 03:17:41;;;;;;;7.10;4.30;;;;;;;;;;5036173;28;20055;-75
2022/09/06 03:20:08;;;;;;;10.07;4.70;;;;;;;;;;5034341;28;20142;-75
2022/09/06 03:22:35;;;;;;;6.70;4.50;;;;;;;;;;5035325;28;20507;-75
2022/09/06 03:25:01;;;;;;;6.68;4.35;;;;;;;;;;5042686;28;20040;-75
2022/09/06 03:27:28;;;;;;;10.05;4.30;;;;;;;;;;5035497;28;20041;-75
2022/09/06 03:29:54;;;;;;;8.15;5.03;;;;;;;;;;5031076;28;20040;-75
2022/09/06 03:32:20;;;;;;;10.20;5.18;;;;;;;;;;5033821;28;20049;-75
2022/09/06 03:34:46;;;;;;;11.07;4.35;;;;;;;;;;5034052;28;20132;-76
2022/09/06 03:37:12;;;;;;;9.88;4.28;;;;;;;;;;5034727;28;20546;-76
2022/09/06 03:39:38;;;;;;;7.40;4.80;;;;;;;;;;5028159;28;20367;-75
2022/09/06 03:42:05;;;;;;;7.78;4.47;;;;;;;;;;5034394;28;20799;-75
2022/09/06 03:44:31;;;;;;;7.45;4.63;;;;;;;;;;5037911;28;20106;-75
2022/09/06 03:46:57;;;;;;;7.35;4.78;;;;;;;;;;5035991;28;20041;-76
2022/09/06 03:49:24;;;;;;;8.85;4.70;;;;;;;;;;5033531;28;20111;-75
2022/09/06 03:51:50;;;;;;;7.95;5.05;;;;;;;;;;5034965;28;20059;-75
2022/09/06 03:54:16;;;;;;;7.10;4.60;;;;;;;;;;5032927;28;20565;-75
2022/09/06 03:56:42;;;;;;;8.95;5.20;;;;;;;;;;5033940;28;20051;-75
2022/09/06 03:59:08;;;;;;;8.35;4.75;;;;;;;;;;5029839;28;20073;-75
2022/09/06 04:01:34;;;;;;;9.07;4.75;;;;;;;;;;5027173;28;20049;-75
2022/09/06 04:04:00;;;;;;;9.18;5.00;;;;;;;;;;5032967;28;20083;-75
2022/09/06 04:06:27;;;;;;;11.13;5.40;;;;;;;;;;5033504;28;20079;-75
2022/09/06 04:08:53;;;;;;;7.78;5.07;;;;;;;;;;5034313;28;20148;-75
2022/09/06 04:11:19;;;;;;;6.80;4.85;;;;;;;;;;5033778;28;20036;-76
2022/09/06 04:13:45;;;;;;;6.53;4.90;;;;;;;;;;5030767;28;21899;-76
2022/09/06 04:16:12;;;;;;;10.05;5.63;;;;;;;;;;5032236;28;20045;-76
2022/09/06 04:18:38;;;;;;;11.45;5.03;;;;;;;;;;5036489;28;20103;-75
2022/09/06 04:21:04;;;;;;;9.50;5.38;;;;;;;;;;5040685;28;20095;-75
2022/09/06 04:23:30;;;;;;;8.07;5.32;;;;;;;;;;5043725;28;20036;-76
2022/09/06 04:25:57;;;;;;;9.70;4.82;;;;;;;;;;5039894;28;20911;-76
2022/09/06 04:28:25;;;;;;;8.75;5.05;;;;;;;;;;5028847;28;20120;-76
2022/09/06 04:30:52;;;;;;;14.45;6.80;;;;;;;;;;5027141;28;20110;-76
2022/09/06 04:33:19;;;;;;;9.85;6.82;;;;;;;;;;5028241;28;20587;-70
2022/09/06 04:35:49;;;;;;;11.63;6.70;;;;;;;;;;5026588;28;20521;-70
2022/09/06 04:38:15;;;;;;;8.43;6.40;;;;;;;;;;5035896;28;20076;-70
2022/09/06 04:40:41;;;;;;;10.50;6.20;;;;;;;;;;5038405;28;20040;-70
2022/09/06 04:43:08;;;;;;;14.57;7.28;;;;;;;;;;5037258;28;20060;-70
2022/09/06 04:45:34;;;;;;;12.95;6.95;;;;;;;;;;5039416;28;20044;-71
2022/09/06 04:48:00;;;;;;;17.63;6.70;;;;;;;;;;5033581;28;20136;-70
2022/09/06 04:50:26;;;;;;;10.43;8.05;;;;;;;;;;5034124;28;20045;-70
2022/09/06 04:52:52;;;;;;;11.98;7.93;;;;;;;;;;5043980;28;20045;-68
2022/09/06 04:55:19;;;;;;;12.05;8.60;;;;;;;;;;5046484;28;20053;-68
2022/09/06 04:57:45;;;;;;;12.30;7.93;;;;;;;;;;5050971;28;20091;-69
2022/09/06 05:00:11;;;;;;;12.43;7.40;;;;;;;;;;5046342;28;20045;-68
2022/09/06 05:02:37;;;;;;;13.13;7.97;;;;;;;;;;5040646;28;20365;-68
2022/09/06 05:05:04;;;;;;;13.18;7.80;;;;;;;;;;5042304;28;20106;-68
2022/09/06 05:07:30;;;;;;;13.00;9.23;;;;;;;;;;5050890;28;20051;-67
2022/09/06 05:09:56;;;;;;;12.48;8.68;;;;;;;;;;5050952;28;20051;-68
2022/09/06 05:12:22;;;;;;;13.70;8.95;;;;;;;;;;5036897;28;20152;-69
2022/09/06 05:14:48;;;;;;;13.95;8.73;;;;;;;;;;5052938;28;20082;-68
2022/09/06 05:17:14;;;;;;;13.68;9.20;;;;;;;;;;5081585;28;20057;-68
2022/09/06 05:19:40;;;;;;;13.18;9.07;;;;;;;;;;5052388;28;20044;-70
2022/09/06 05:22:07;;;;;;;13.18;9.07;;;;;;;;;;5052501;28;20106;-71
2022/09/06 05:24:33;;;;;;;11.45;8.70;;;;;;;;;;5051963;28;20056;-70
2022/09/06 05:27:02;;;;;;;16.23;8.45;;;;;;;;;;5050059;28;20060;-69
2022/09/06 05:29:28;;;;;;;14.73;9.68;;;;;;;;;;5057136;28;20052;-70
2022/09/06 05:31:55;;;;;;;15.38;8.52;;;;;;;;;;5066734;28;20041;-70
2022/09/06 05:34:21;;;;;;;9.07;8.18;;;;;;;;;;5056400;28;20049;-70
2022/09/06 05:36:47;;;;;;;9.02;7.93;;;;;;;;;;5047372;28;20048;-70
2022/09/06 05:39:13;;;;;;;10.77;8.75;;;;;;;;;;5064030;28;20037;-70
2022/09/06 05:41:39;;;;;;;10.75;8.02;;;;;;;;;;5059001;28;20048;-70
2022/09/06 05:44:05;;;;;;;13.07;8.73;;;;;;;;;;5057643;28;20037;-70
2022/09/06 05:46:31;;;;;;;10.48;8.50;;;;;;;;;;5060269;28;20052;-70
2022/09/06 05:49:00;;;;;;;10.52;9.07;;;;;;;;;;5061861;28;20045;-70
2022/09/06 05:51:26;;;;;;;12.52;8.63;;;;;;;;;;5053021;28;20110;-70
2022/09/06 05:53:52;;;;;;;11.32;8.48;;;;;;;;;;5062148;28;20060;-70
2022/09/06 05:56:18;;;;;;;10.68;9.30;;;;;;;;;;5059526;28;20124;-70
2022/09/06 05:58:44;;;;;;;12.32;10.68;;;;;;;;;;5047390;28;20076;-70
2022/09/06 06:01:15;;;;;;;11.52;9.95;;;;;;;;;;5052534;28;20073;-70
2022/09/06 06:03:42;;;;;;;11.45;8.75;;;;;;;;;;5046397;28;20175;-71
2022/09/06 06:06:08;;;;;;;11.50;10.38;;;;;;;;;;5045151;28;20334;-70
2022/09/06 06:08:35;;;;;;;14.70;10.45;;;;;;;;;;5048751;28;20048;-70
2022/09/06 06:11:01;;;;;;;13.30;10.27;;;;;;;;;;5059480;28;20222;-70
2022/09/06 06:13:33;;;;;;;12.65;9.88;;;;;;;;;;5056990;28;20101;-70
2022/09/06 06:16:00;;;;;;;13.93;9.80;;;;;;;;;;5066747;28;20045;-69
2022/09/06 06:18:26;;;;;;;19.05;10.57;;;;;;;;;;5058615;28;20122;-70
2022/09/06 06:20:52;;;;;;;10.18;9.00;;;;;;;;;;5057756;28;20049;-70
2022/09/06 06:23:18;;;;;;;17.15;10.45;;;;;;;;;;5057305;28;20052;-70
2022/09/06 06:25:44;;;;;;;11.23;8.88;;;;;;;;;;5061817;28;20366;-71
2022/09/06 06:28:10;;;;;;;15.63;9.15;;;;;;;;;;5061121;28;20478;-70
2022/09/06 06:30:36;;;;;;;11.55;9.75;;;;;;;;;;5063412;28;20201;-70
2022/09/06 06:33:03;;;;;;;12.10;9.73;;;;;;;;;;5059464;28;20041;-70
2022/09/06 06:35:29;;;;;;;12.55;9.82;;;;;;;;;;5062109;28;20404;-70
2022/09/06 06:37:55;;;;;;;12.07;9.25;;;;;;;;;;5061496;28;20119;-70
2022/09/06 06:40:21;;;;;;;13.07;9.32;;;;;;;;;;5059515;28;20427;-70
2022/09/06 06:42:48;;;;;;;10.60;9.50;;;;;;;;;;5053799;28;20048;-70
2022/09/06 06:45:14;;;;;;;13.88;9.52;;;;;;;;;;5043558;28;20053;-70
2022/09/06 06:47:40;;;;;;;13.68;10.60;;;;;;;;;;5049379;28;20126;-69
2022/09/06 06:50:06;;;;;;;13.63;10.60;;;;;;;;;;5048138;28;20053;-71
2022/09/06 06:52:32;;;;;;;12.45;9.40;;;;;;;;;;5045044;28;20580;-69
2022/09/06 06:54:58;;;;;;;12.93;10.23;;;;;;;;;;5045608;28;20174;-69
2022/09/06 06:57:25;;;;;;;13.55;10.13;;;;;;;;;;5061559;28;20049;-69
2022/09/06 06:59:51;;;;;;;13.38;9.73;;;;;;;;;;5047345;28;20137;-69
2022/09/06 07:02:17;;;;;;;11.10;9.50;;;;;;;;;;5046731;28;20044;-69
2022/09/06 07:04:43;;;;;;;12.30;10.10;;;;;;;;;;5046237;28;20049;-69
2022/09/06 07:07:10;;;;;;;16.23;10.25;;;;;;;;;;5044596;28;20286;-69
2022/09/06 07:09:36;;;;;;;14.10;10.43;;;;;;;;;;5044848;28;20829;-69
2022/09/06 07:12:02;;;;;;;16.25;11.32;;;;;;;;;;5047431;28;20139;-69
2022/09/06 07:14:29;;;;;;;13.45;10.70;;;;;;;;;;5046552;28;20480;-70
2022/09/06 07:16:57;;;;;;;17.25;10.50;;;;;;;;;;5047679;28;20037;-69
2022/09/06 07:19:23;;;;;;;13.63;11.30;;;;;;;;;;5045586;28;20049;-66
2022/09/06 07:21:49;;;;;;;12.88;11.15;;;;;;;;;;5046927;28;20531;-68
2022/09/06 07:24:16;;;;;;;14.48;11.88;;;;;;;;;;5046424;28;20056;-69
2022/09/06 07:26:42;;;;;;;12.45;10.13;;;;;;;;;;5048021;28;20053;-69
2022/09/06 07:29:08;;;;;;;13.30;10.85;;;;;;;;;;5046159;28;20447;-69
2022/09/06 07:31:35;;;;;;;13.82;10.70;;;;;;;;;;5045882;28;20044;-70
2022/09/06 07:34:03;;;;;;;12.70;10.30;;;;;;;;;;5047947;28;20051;-70
2022/09/06 07:36:30;;;;;;;16.38;10.88;;;;;;;;;;5044302;28;20059;-70
2022/09/06 07:38:56;;;;;;;12.30;10.77;;;;;;;;;;5045532;28;20041;-69
2022/09/06 07:41:22;;;;;;;13.52;10.90;;;;;;;;;;5046218;28;20041;-70
2022/09/06 07:43:53;;;;;;;13.63;10.77;;;;;;;;;;5046300;28;20202;-70
2022/09/06 07:46:19;;;;;;;21.23;10.63;;;;;;;;;;5046235;28;20053;-69
2022/09/06 07:48:45;;;;;;;14.43;9.70;;;;;;;;;;5047062;28;20045;-70
2022/09/06 07:51:13;;;;;;;12.57;9.88;;;;;;;;;;5045897;28;20055;-69
2022/09/06 07:53:40;;;;;;;15.65;11.13;;;;;;;;;;5045183;28;20067;-70
2022/09/06 07:56:08;;;;;;;16.30;11.55;;;;;;;;;;5045066;28;20089;-70
2022/09/06 07:58:34;;;;;;;12.63;11.25;;;;;;;;;;5045305;28;20119;-70
2022/09/06 08:01:15;;;;;;;14.05;10.40;;;;;;;;;;5045747;28;20506;-70
2022/09/06 08:03:41;;;;;;;17.35;11.10;;;;;;;;;;5061433;28;20405;-70
2022/09/06 08:06:08;;;;;;;12.05;10.00;;;;;;;;;;5044879;28;20418;-70
2022/09/06 08:08:34;;;;;;;11.73;10.52;;;;;;;;;;5046764;28;20076;-70
2022/09/06 08:11:00;;;;;;;11.38;10.18;;;;;;;;;;5045531;28;20091;-71
2022/09/06 08:13:26;;;;;;;11.95;10.57;;;;;;;;;;5044411;28;20094;-70
2022/09/06 08:15:58;;;;;;;11.85;10.57;;;;;;;;;;5045081;28;20052;-70
2022/09/06 08:18:24;;;;;;;12.40;10.98;;;;;;;;;;5061450;28;20084;-70
2022/09/06 08:20:50;;;;;;;13.18;9.82;;;;;;;;;;5045561;28;20068;-70
2022/09/06 08:23:16;;;;;;;14.77;11.25;;;;;;;;;;5045019;28;20040;-70
2022/09/06 08:25:42;;;;;;;15.32;11.15;;;;;;;;;;5042589;28;20044;-69
2022/09/06 08:28:08;;;;;;;13.38;11.25;;;;;;;;;;5044626;28;20465;-70
2022/09/06 08:30:35;;;;;;;12.52;10.60;;;;;;;;;;5044369;28;20041;-70
2022/09/06 08:33:02;;;;;;;12.60;10.38;;;;;;;;;;5042968;28;20049;-70
2022/09/06 08:35:28;;;;;;;16.42;11.32;;;;;;;;;;5044018;28;20052;-70
2022/09/06 08:37:57;;;;;;;14.45;10.73;;;;;;;;;;5044677;28;20477;-70
2022/09/06 08:40:24;;;;;;;13.75;11.32;;;;;;;;;;5045484;28;20045;-70
2022/09/06 08:42:51;;;;;;;14.75;10.98;;;;;;;;;;5046808;28;20519;-70
2022/09/06 08:45:20;;;;;;;13.02;10.52;;;;;;;;;;5048440;28;20056;-69
2022/09/06 08:47:48;;;;;;;13.48;11.40;;;;;;;;;;5080317;28;20214;-70
2022/09/06 08:50:15;;;;;;;12.32;11.02;;;;;;;;;;5049351;28;20045;-70
2022/09/06 08:52:50;;;;;;;13.88;10.30;;;;;;;;;;5047087;28;20059;-69
2022/09/06 08:55:27;;;;;;;13.82;10.48;;;;;;;;;;5063226;28;20056;-70
2022/09/06 08:58:03;;;;;;;14.38;11.23;;;;;;;;;;5049757;28;20481;-70
2022/09/06 09:00:30;;;;;;;15.18;11.07;;;;;;;;;;5051788;28;20063;-70
2022/09/06 09:03:02;;;;;;;15.40;10.60;;;;;;;;;;5053726;28;20044;-70
2022/09/06 09:05:30;;;;;;;15.55;10.27;;;;;;;;;;5058850;28;20465;-70
2022/09/06 09:08:03;;;;;;;14.93;10.23;;;;;;;;;;5054704;28;20059;-67
2022/09/06 09:10:31;;;;;;;10.85;9.73;;;;;;;;;;5052694;28;20052;-67
2022/09/06 09:12:59;;;;;;;14.05;9.93;;;;;;;;;;5054752;28;20045;-68
2022/09/06 09:15:27;;;;;;;13.77;9.93;;;;;;;;;;5064837;28;20139;-68
2022/09/06 09:17:54;;;;;;;12.35;10.70;;;;;;;;;;5059176;28;21507;-67
2022/09/06 09:20:20;;;;;;;12.55;9.82;;;;;;;;;;5059309;28;20134;-67
2022/09/06 09:22:47;;;;;;;13.73;10.23;;;;;;;;;;5055913;28;20514;-68
2022/09/06 09:25:18;;;;;;;13.98;10.05;;;;;;;;;;5053761;28;20055;-68
2022/09/06 09:27:44;;;;;;;12.27;9.70;;;;;;;;;;5058928;28;20245;-68
2022/09/06 09:30:11;;;;;;;11.30;10.10;;;;;;;;;;5053859;28;20045;-68
2022/09/06 09:32:38;;;;;;;14.48;9.70;;;;;;;;;;5061673;28;20142;-67
2022/09/06 09:35:14;;;;;;;14.43;10.02;;;;;;;;;;5046668;28;20452;-68
2022/09/06 09:37:40;;;;;;;12.32;9.73;;;;;;;;;;5052814;28;20452;-68
2022/09/06 09:40:13;;;;;;;13.05;9.77;;;;;;;;;;5055677;28;20044;-68
2022/09/06 09:42:39;;;;;;;11.60;8.33;;;;;;;;;;5061926;28;20178;-68
2022/09/06 09:45:22;;;;;;;9.80;8.80;;;;;;;;;;5059043;28;20037;-68
2022/09/06 09:47:48;;;;;;;14.67;8.30;;;;;;;;;;5047771;28;20053;-68
2022/09/06 09:50:23;;;;;;;10.82;8.73;;;;;;;;;;5054556;28;20068;-69
2022/09/06 09:52:49;;;;;;;11.00;8.52;;;;;;;;;;5060585;28;20517;-69
2022/09/06 09:55:16;;;;;;;13.25;8.77;;;;;;;;;;5062150;28;20381;-69
2022/09/06 09:57:45;;;;;;;13.65;8.00;;;;;;;;;;5059094;28;20439;-69
2022/09/06 10:00:12;;;;;;;14.45;7.00;;;;;;;;;;5059582;28;20082;-68
2022/09/06 10:02:41;;;;;;;9.35;6.85;;;;;;;;;;5059972;28;20048;-69
2022/09/06 10:05:09;;;;;;;8.05;5.72;;;;;;;;;;5057379;28;20447;-68
2022/09/06 10:07:41;;;;;;;6.13;5.38;;;;;;;;;;5059405;28;20052;-68
2022/09/06 10:10:16;;;;;;;10.05;6.05;;;;;;;;;;5052358;28;20037;-69
2022/09/06 10:12:42;;;;;;;13.77;6.13;;;;;;;;;;5057429;28;20079;-69
2022/09/06 10:15:11;;;;;;;9.43;6.15;;;;;;;;;;5063719;28;20121;-69
2022/09/06 10:17:46;;;;;;;11.10;6.78;;;;;;;;;;5056299;28;20037;-69
2022/09/06 10:20:13;;;;;;;7.57;5.63;;;;;;;;;;5062509;28;20033;-69
2022/09/06 10:22:39;;;;;;;8.48;6.10;;;;;;;;;;5054823;28;20095;-69
2022/09/06 10:25:20;;;;;;;9.00;5.47;;;;;;;;;;5062122;28;20047;-69
2022/09/06 10:28:02;;;;;;;8.30;5.90;;;;;;;;;;5060316;28;20076;-69
2022/09/06 10:30:29;;;;;;;8.38;6.57;;;;;;;;;;5060119;28;20056;-69
2022/09/06 10:33:10;;;;;;;8.43;5.55;;;;;;;;;;5062118;28;20045;-69
2022/09/06 10:35:37;;;;;;;7.75;5.85;;;;;;;;;;5056507;28;20076;-69
2022/09/06 10:38:12;;;;;;;11.48;6.10;;;;;;;;;;5059828;28;20048;-69
2022/09/06 10:40:57;;;;;;;7.95;5.82;;;;;;;;;;5060646;28;20052;-69
2022/09/06 10:43:24;;;;;;;8.90;5.38;;;;;;;;;;5062195;28;20136;-69
2022/09/06 10:45:56;;;;;;;7.68;5.18;;;;;;;;;;5058898;28;20114;-69
2022/09/06 10:48:28;;;;;;;7.35;4.80;;;;;;;;;;5056896;28;20365;-69
2022/09/06 10:50:57;;;;;;;6.55;4.18;;;;;;;;;;5056599;28;20106;-68
2022/09/06 10:53:36;;;;;;;5.85;4.50;;;;;;;;;;5054216;28;20401;-69
2022/09/06 10:56:04;;;;;;;6.25;4.38;;;;;;;;;;5050132;28;20226;-69
2022/09/06 10:58:33;;;;;;;6.78;4.35;;;;;;;;;;5050463;28;20509;-69
2022/09/06 11:00:59;;;;;;;7.63;3.70;;;;;;;;;;5058128;28;20049;-69
2022/09/06 11:03:29;;;;;;;6.97;4.50;;;;;;;;;;5061875;28;20535;-69
2022/09/06 11:05:58;;;;;;;8.85;4.35;;;;;;;;;;5058087;28;20041;-69
2022/09/06 11:08:28;;;;;;;6.25;4.45;;;;;;;;;;5060204;28;20059;-69
2022/09/06 11:10:54;;;;;;;8.02;4.13;;;;;;;;;;5060577;28;20487;-69
2022/09/06 11:13:22;;;;;;;4.85;3.70;;;;;;;;;;5055477;28;20476;-69
2022/09/06 11:15:54;;;;;;;5.15;3.78;;;;;;;;;;5057998;28;20048;-69
2022/09/06 11:18:27;;;;;;;9.73;4.47;;;;;;;;;;5061334;28;20076;-69
2022/09/06 11:21:02;;;;;;;6.40;3.90;;;;;;;;;;5051975;28;20093;-69
2022/09/06 11:23:48;;;;;;;6.72;4.35;;;;;;;;;;5056946;28;20047;-69
2022/09/06 11:26:25;;;;;;;7.13;3.72;;;;;;;;;;5056109;28;20120;-69
2022/09/06 11:28:53;;;;;;;6.22;3.78;;;;;;;;;;5040979;28;20133;-69
2022/09/06 11:31:26;;;;;;;8.07;4.50;;;;;;;;;;5058649;28;20052;-69
2022/09/06 11:34:04;;;;;;;6.78;4.30;;;;;;;;;;5059161;28;20032;-69
2022/09/06 11:36:36;;;;;;;5.70;4.13;;;;;;;;;;5061502;28;20036;-69
2022/09/06 11:39:03;;;;;;;9.65;4.15;;;;;;;;;;5056520;28;20145;-69
2022/09/06 11:41:31;;;;;;;7.55;3.67;;;;;;;;;;5057777;28;20479;-69
2022/09/06 11:43:57;;;;;;;7.90;4.05;;;;;;;;;;5054717;28;20033;-69
2022/09/06 11:46:37;;;;;;;4.72;3.53;;;;;;;;;;5048287;28;20059;-69
2022/09/06 11:49:10;;;;;;;11.23;3.80;;;;;;;;;;5046392;28;20540;-69
2022/09/06 11:51:37;;;;;;;6.15;3.50;;;;;;;;;;5058136;28;20567;-69
2022/09/06 11:54:03;;;;;;;7.40;2.90;;;;;;;;;;5057481;28;20056;-70
2022/09/06 11:56:32;;;;;;;5.00;3.40;;;;;;;;;;5059253;28;20080;-69
2022/09/06 11:59:06;;;;;;;5.40;3.42;;;;;;;;;;5060017;28;20036;-69
2022/09/06 12:01:33;;;;;;;6.35;3.35;;;;;;;;;;5058773;28;20488;-69
2022/09/06 12:04:01;;;;;;;5.07;2.92;;;;;;;;;;5051054;28;20030;-69
2022/09/06 12:06:34;;;;;;;5.07;2.33;;;;;;;;;;5060555;28;20041;-70
2022/09/06 12:09:00;;;;;;;4.72;2.28;;;;;;;;;;5059957;28;20048;-70
2022/09/06 12:11:26;;;;;;;6.70;2.80;;;;;;;;;;5054496;28;20053;-70
2022/09/06 12:13:53;;;;;;;5.85;2.90;;;;;;;;;;5060024;28;20040;-69
2022/09/06 12:16:20;;;;;;;5.57;2.95;;;;;;;;;;5056406;28;20090;-69
2022/09/06 12:18:46;;;;;;;5.53;2.55;;;;;;;;;;5056258;28;20045;-70
2022/09/06 12:21:31;;;;;;;4.93;2.28;;;;;;;;;;5057128;28;20032;-69
2022/09/06 12:23:57;;;;;;;6.88;2.63;;;;;;;;;;5053439;28;20051;-69
2022/09/06 12:26:42;;;;;;;5.10;2.67;;;;;;;;;;5057205;28;20041;-69
2022/09/06 12:29:10;;;;;;;6.10;2.55;;;;;;;;;;5053677;28;20036;-70
2022/09/06 12:31:38;;;;;;;6.43;3.05;;;;;;;;;;5047400;28;20409;-70
2022/09/06 12:34:07;;;;;;;4.30;2.35;;;;;;;;;;5059005;28;20049;-70
2022/09/06 12:36:33;;;;;;;4.50;2.30;;;;;;;;;;5057418;28;20040;-69
2022/09/06 12:39:02;;;;;;;4.97;2.60;;;;;;;;;;5046266;28;20049;-69
2022/09/06 12:41:30;;;;;;;4.30;2.58;;;;;;;;;;5052628;28;20041;-69
2022/09/06 12:43:59;;;;;;;6.13;1.98;;;;;;;;;;5045808;28;21323;-69
2022/09/06 12:46:26;;;;;;;3.50;2.05;;;;;;;;;;5054614;28;20052;-70
2022/09/06 12:49:01;;;;;;;4.78;2.05;;;;;;;;;;5052934;28;20033;-70
2022/09/06 12:51:27;;;;;;;6.10;2.53;;;;;;;;;;5051273;28;20048;-69
2022/09/06 12:53:54;;;;;;;7.07;2.70;;;;;;;;;;5057387;28;20463;-69
2022/09/06 12:56:21;;;;;;;7.22;2.35;;;;;;;;;;5056066;28;20044;-69
2022/09/06 12:58:47;;;;;;;3.90;2.13;;;;;;;;;;5052943;28;20044;-69
2022/09/06 13:01:21;;;;;;;6.18;2.40;;;;;;;;;;5060535;28;20064;-69
2022/09/06 13:04:01;;;;;;;3.83;2.30;;;;;;;;;;5047648;28;20116;-69
2022/09/06 13:06:29;;;;;;;6.40;2.20;;;;;;;;;;5037091;28;20052;-69
2022/09/06 13:08:56;;;;;;;3.83;2.40;;;;;;;;;;5053533;28;20433;-69
2022/09/06 13:11:25;;;;;;;4.72;2.10;;;;;;;;;;5058001;28;20055;-69
2022/09/06 13:13:52;;;;;;;6.35;2.00;;;;;;;;;;5058317;28;20037;-70
2022/09/06 13:16:25;;;;;;;6.55;2.53;;;;;;;;;;5057372;28;20119;-69
2022/09/06 13:18:52;;;;;;;4.25;2.22;;;;;;;;;;5059036;28;20480;-69
2022/09/06 13:21:26;;;;;;;7.88;2.65;;;;;;;;;;5054087;28;20033;-69
2022/09/06 13:23:52;;;;;;;8.77;2.53;;;;;;;;;;5057546;28;20090;-69
2022/09/06 13:26:33;;;;;;;4.72;2.28;;;;;;;;;;5052602;28;20048;-69
2022/09/06 13:29:10;;;;;;;4.75;2.45;;;;;;;;;;5057382;28;20045;-69
2022/09/06 13:31:36;;;;;;;6.20;2.92;;;;;;;;;;5061014;28;20120;-69
2022/09/06 13:34:02;;;;;;;5.32;2.83;;;;;;;;;;5062519;28;20372;-68
2022/09/06 13:36:29;;;;;;;8.25;3.38;;;;;;;;;;5060991;28;20440;-69
2022/09/06 13:38:56;;;;;;;10.23;3.13;;;;;;;;;;5057892;28;20119;-69
2022/09/06 13:41:25;;;;;;;7.95;3.42;;;;;;;;;;5063370;28;20040;-69
2022/09/06 13:43:58;;;;;;;5.35;2.83;;;;;;;;;;5059228;28;20117;-69
2022/09/06 13:46:25;;;;;;;6.25;3.03;;;;;;;;;;5062106;28;20048;-68
2022/09/06 13:48:54;;;;;;;7.25;2.65;;;;;;;;;;5055469;28;20041;-68
2022/09/06 13:51:21;;;;;;;9.40;2.97;;;;;;;;;;5064445;28;20139;-69
2022/09/06 13:53:47;;;;;;;5.53;2.80;;;;;;;;;;5062770;28;20044;-69
2022/09/06 13:56:15;;;;;;;5.20;2.22;;;;;;;;;;5050028;28;20064;-68
2022/09/06 13:58:41;;;;;;;6.75;2.83;;;;;;;;;;5055534;28;20072;-69
2022/09/06 14:01:09;;;;;;;6.22;2.15;;;;;;;;;;5059683;28;20041;-69
2022/09/06 14:03:35;;;;;;;5.93;2.63;;;;;;;;;;5064753;28;20040;-69
2022/09/06 14:06:02;;;;;;;5.95;2.30;;;;;;;;;;5059211;28;20041;-69
2022/09/06 14:08:28;;;;;;;3.65;1.95;;;;;;;;;;5060888;28;20049;-69
2022/09/06 14:10:54;;;;;;;4.28;1.85;;;;;;;;;;5060733;28;20045;-69
2022/09/06 14:13:20;;;;;;;6.68;1.70;;;;;;;;;;5061701;28;20447;-69
2022/09/06 14:15:47;;;;;;;5.45;1.65;;;;;;;;;;5061154;28;20393;-69
2022/09/06 14:18:14;;;;;;;3.70;1.80;;;;;;;;;;5060842;28;20048;-69
2022/09/06 14:20:40;;;;;;;4.05;1.60;;;;;;;;;;5059914;28;20037;-69
2022/09/06 14:23:06;;;;;;;3.40;1.85;;;;;;;;;;5061231;28;20048;-69
2022/09/06 14:25:35;;;;;;;3.95;1.60;;;;;;;;;;5064112;28;20040;-69
2022/09/06 14:28:02;;;;;;;3.58;1.60;;;;;;;;;;5062774;28;20059;-68
2022/09/06 14:30:28;;;;;;;5.97;1.67;;;;;;;;;;5054745;28;20090;-68
2022/09/06 14:32:54;;;;;;;5.07;1.75;;;;;;;;;;5061572;28;20115;-68
2022/09/06 14:35:20;;;;;;;4.18;1.58;;;;;;;;;;5062272;28;20046;-69
2022/09/06 14:37:46;;;;;;;5.72;1.73;;;;;;;;;;5063501;28;20106;-69
2022/09/06 14:40:12;;;;;;;4.32;1.60;;;;;;;;;;5060037;28;20036;-69
2022/09/06 14:42:39;;;;;;;4.38;1.60;;;;;;;;;;5062786;28;20071;-69